sensor_id;sensor_type;location;lat;lon;timestamp;P1;durP1;ratioP1;P2;durP2;ratioP2
45208;SDS011;30951;43.994;26.260;2023-07-29T00:00:44;2.50;;;1.95;;
45208;SDS011;30951;43.994;26.260;2023-07-29T00:03:09;3.92;;;2.53;;
45208;SDS011;30951;43.994;26.260;2023-07-29T00:05:36;2.35;;;2.15;;
45208;SDS011;30951;43.994;26.260;2023-07-29T00:08:02;3.42;;;2.30;;
45208;SDS011;30951;43.994;26.260;2023-07-29T00:10:28;3.03;;;2.08;;
45208;SDS011;30951;43.994;26.260;2023-07-29T00:12:53;4.38;;;2.08;;
45208;SDS011;30951;43.994;26.260;2023-07-29T00:15:19;3.95;;;2.35;;
45208;SDS011;30951;43.994;26.260;2023-07-29T00:17:44;7.45;;;2.20;;
45208;SDS011;30951;43.994;26.260;2023-07-29T00:20:10;2.22;;;2.03;;
45208;SDS011;30951;43.994;26.260;2023-07-29T00:22:35;2.35;;;2.15;;
45208;SDS011;30951;43.994;26.260;2023-07-29T00:25:01;2.78;;;1.92;;
45208;SDS011;30951;43.994;26.260;2023-07-29T00:27:27;3.45;;;2.22;;
45208;SDS011;30951;43.994;26.260;2023-07-29T00:29:52;6.45;;;2.80;;
45208;SDS011;30951;43.994;26.260;2023-07-29T00:32:18;3.50;;;2.53;;
45208;SDS011;30951;43.994;26.260;2023-07-29T00:34:43;3.35;;;3.05;;
45208;SDS011;30951;43.994;26.260;2023-07-29T00:37:09;4.00;;;2.63;;
45208;SDS011;30951;43.994;26.260;2023-07-29T00:39:35;4.65;;;2.58;;
45208;SDS011;30951;43.994;26.260;2023-07-29T00:42:02;4.53;;;2.97;;
45208;SDS011;30951;43.994;26.260;2023-07-29T00:44:28;3.65;;;2.70;;
45208;SDS011;30951;43.994;26.260;2023-07-29T00:46:53;3.08;;;2.58;;
45208;SDS011;30951;43.994;26.260;2023-07-29T00:49:20;5.35;;;3.38;;
45208;SDS011;30951;43.994;26.260;2023-07-29T00:51:46;6.00;;;2.88;;
45208;SDS011;30951;43.994;26.260;2023-07-29T00:54:12;4.50;;;2.78;;
45208;SDS011;30951;43.994;26.260;2023-07-29T00:56:38;3.03;;;2.72;;
45208;SDS011;30951;43.994;26.260;2023-07-29T00:59:03;6.25;;;3.53;;
45208;SDS011;30951;43.994;26.260;2023-07-29T01:01:29;3.17;;;2.80;;
45208;SDS011;30951;43.994;26.260;2023-07-29T01:03:56;5.35;;;2.38;;
45208;SDS011;30951;43.994;26.260;2023-07-29T01:06:41;4.05;;;2.70;;
45208;SDS011;30951;43.994;26.260;2023-07-29T01:12:08;4.25;;;2.00;;
45208;SDS011;30951;43.994;26.260;2023-07-29T01:14:41;3.00;;;2.53;;
45208;SDS011;30951;43.994;26.260;2023-07-29T01:17:13;2.95;;;2.40;;
45208;SDS011;30951;43.994;26.260;2023-07-29T01:19:48;5.72;;;2.53;;
45208;SDS011;30951;43.994;26.260;2023-07-29T01:22:20;4.10;;;2.35;;
45208;SDS011;30951;43.994;26.260;2023-07-29T01:24:46;3.10;;;2.35;;
45208;SDS011;30951;43.994;26.260;2023-07-29T01:27:12;2.38;;;2.17;;
45208;SDS011;30951;43.994;26.260;2023-07-29T01:29:39;5.18;;;2.80;;
45208;SDS011;30951;43.994;26.260;2023-07-29T01:32:07;6.82;;;2.65;;
45208;SDS011;30951;43.994;26.260;2023-07-29T01:34:39;3.78;;;2.30;;
45208;SDS011;30951;43.994;26.260;2023-07-29T01:37:09;3.03;;;2.60;;
45208;SDS011;30951;43.994;26.260;2023-07-29T01:39:36;4.28;;;3.17;;
45208;SDS011;30951;43.994;26.260;2023-07-29T01:42:02;5.13;;;2.78;;
45208;SDS011;30951;43.994;26.260;2023-07-29T01:44:28;5.25;;;3.30;;
45208;SDS011;30951;43.994;26.260;2023-07-29T01:46:55;7.93;;;2.53;;
45208;SDS011;30951;43.994;26.260;2023-07-29T01:49:21;5.75;;;2.72;;
45208;SDS011;30951;43.994;26.260;2023-07-29T01:51:46;2.85;;;2.58;;
45208;SDS011;30951;43.994;26.260;2023-07-29T01:54:12;4.03;;;2.85;;
45208;SDS011;30951;43.994;26.260;2023-07-29T01:56:37;3.20;;;2.53;;
45208;SDS011;30951;43.994;26.260;2023-07-29T01:59:03;2.95;;;2.75;;
45208;SDS011;30951;43.994;26.260;2023-07-29T02:01:28;5.35;;;2.80;;
45208;SDS011;30951;43.994;26.260;2023-07-29T02:03:53;3.08;;;2.65;;
45208;SDS011;30951;43.994;26.260;2023-07-29T02:06:20;4.80;;;3.10;;
45208;SDS011;30951;43.994;26.260;2023-07-29T02:08:46;2.42;;;2.22;;
45208;SDS011;30951;43.994;26.260;2023-07-29T02:11:12;7.40;;;3.10;;
45208;SDS011;30951;43.994;26.260;2023-07-29T02:13:37;7.72;;;2.95;;
45208;SDS011;30951;43.994;26.260;2023-07-29T02:16:03;2.83;;;2.55;;
45208;SDS011;30951;43.994;26.260;2023-07-29T02:18:28;3.47;;;2.65;;
45208;SDS011;30951;43.994;26.260;2023-07-29T02:20:54;5.38;;;3.20;;
45208;SDS011;30951;43.994;26.260;2023-07-29T02:23:19;3.60;;;2.67;;
45208;SDS011;30951;43.994;26.260;2023-07-29T02:25:45;3.92;;;2.65;;
45208;SDS011;30951;43.994;26.260;2023-07-29T02:28:10;3.00;;;2.70;;
45208;SDS011;30951;43.994;26.260;2023-07-29T02:30:36;3.13;;;2.65;;
45208;SDS011;30951;43.994;26.260;2023-07-29T02:33:02;3.45;;;2.80;;
45208;SDS011;30951;43.994;26.260;2023-07-29T02:35:27;5.40;;;2.92;;
45208;SDS011;30951;43.994;26.260;2023-07-29T02:37:53;2.63;;;2.40;;
45208;SDS011;30951;43.994;26.260;2023-07-29T02:40:18;2.90;;;2.60;;
45208;SDS011;30951;43.994;26.260;2023-07-29T02:42:46;3.47;;;2.83;;
45208;SDS011;30951;43.994;26.260;2023-07-29T02:45:11;3.17;;;2.72;;
45208;SDS011;30951;43.994;26.260;2023-07-29T02:47:37;7.47;;;2.85;;
45208;SDS011;30951;43.994;26.260;2023-07-29T02:50:03;4.95;;;3.05;;
45208;SDS011;30951;43.994;26.260;2023-07-29T02:52:29;4.00;;;3.22;;
45208;SDS011;30951;43.994;26.260;2023-07-29T02:54:55;3.25;;;2.95;;
45208;SDS011;30951;43.994;26.260;2023-07-29T02:57:20;3.35;;;2.85;;
45208;SDS011;30951;43.994;26.260;2023-07-29T02:59:46;9.98;;;3.03;;
45208;SDS011;30951;43.994;26.260;2023-07-29T03:02:11;7.57;;;3.00;;
45208;SDS011;30951;43.994;26.260;2023-07-29T03:04:36;7.43;;;3.17;;
45208;SDS011;30951;43.994;26.260;2023-07-29T03:07:02;14.02;;;3.13;;
45208;SDS011;30951;43.994;26.260;2023-07-29T03:09:28;3.58;;;2.78;;
45208;SDS011;30951;43.994;26.260;2023-07-29T03:11:54;5.40;;;2.90;;
45208;SDS011;30951;43.994;26.260;2023-07-29T03:14:20;4.60;;;3.05;;
45208;SDS011;30951;43.994;26.260;2023-07-29T03:16:46;8.52;;;3.20;;
45208;SDS011;30951;43.994;26.260;2023-07-29T03:19:12;2.47;;;2.28;;
45208;SDS011;30951;43.994;26.260;2023-07-29T03:21:37;3.60;;;2.80;;
45208;SDS011;30951;43.994;26.260;2023-07-29T03:24:03;4.55;;;2.53;;
45208;SDS011;30951;43.994;26.260;2023-07-29T03:26:28;7.45;;;2.80;;
45208;SDS011;30951;43.994;26.260;2023-07-29T03:28:54;4.10;;;3.08;;
45208;SDS011;30951;43.994;26.260;2023-07-29T03:31:20;3.15;;;2.85;;
45208;SDS011;30951;43.994;26.260;2023-07-29T03:33:45;7.18;;;2.65;;
45208;SDS011;30951;43.994;26.260;2023-07-29T03:36:11;4.45;;;2.97;;
45208;SDS011;30951;43.994;26.260;2023-07-29T03:38:36;3.30;;;2.58;;
45208;SDS011;30951;43.994;26.260;2023-07-29T03:41:05;3.30;;;2.67;;
45208;SDS011;30951;43.994;26.260;2023-07-29T03:43:32;5.22;;;3.05;;
45208;SDS011;30951;43.994;26.260;2023-07-29T03:45:58;3.63;;;3.05;;
45208;SDS011;30951;43.994;26.260;2023-07-29T03:48:23;5.30;;;3.50;;
45208;SDS011;30951;43.994;26.260;2023-07-29T03:50:49;4.65;;;3.00;;
45208;SDS011;30951;43.994;26.260;2023-07-29T03:53:14;8.02;;;2.88;;
45208;SDS011;30951;43.994;26.260;2023-07-29T03:55:40;4.22;;;2.95;;
45208;SDS011;30951;43.994;26.260;2023-07-29T03:58:05;5.28;;;2.97;;
45208;SDS011;30951;43.994;26.260;2023-07-29T04:00:31;4.30;;;2.80;;
45208;SDS011;30951;43.994;26.260;2023-07-29T04:02:56;4.88;;;2.70;;
45208;SDS011;30951;43.994;26.260;2023-07-29T04:05:22;5.43;;;3.08;;
45208;SDS011;30951;43.994;26.260;2023-07-29T04:07:47;7.35;;;3.20;;
45208;SDS011;30951;43.994;26.260;2023-07-29T04:10:13;4.70;;;3.20;;
45208;SDS011;30951;43.994;26.260;2023-07-29T04:12:39;6.35;;;2.85;;
45208;SDS011;30951;43.994;26.260;2023-07-29T04:15:04;5.70;;;3.03;;
45208;SDS011;30951;43.994;26.260;2023-07-29T04:17:30;3.03;;;2.65;;
45208;SDS011;30951;43.994;26.260;2023-07-29T04:19:56;3.45;;;3.10;;
45208;SDS011;30951;43.994;26.260;2023-07-29T04:22:21;3.45;;;2.95;;
45208;SDS011;30951;43.994;26.260;2023-07-29T04:24:47;3.65;;;3.33;;
45208;SDS011;30951;43.994;26.260;2023-07-29T04:27:12;4.15;;;3.00;;
45208;SDS011;30951;43.994;26.260;2023-07-29T04:29:38;2.90;;;2.70;;
45208;SDS011;30951;43.994;26.260;2023-07-29T04:32:03;4.22;;;2.88;;
45208;SDS011;30951;43.994;26.260;2023-07-29T04:34:29;3.13;;;2.92;;
45208;SDS011;30951;43.994;26.260;2023-07-29T04:36:55;6.53;;;3.15;;
45208;SDS011;30951;43.994;26.260;2023-07-29T04:39:20;4.38;;;3.65;;
45208;SDS011;30951;43.994;26.260;2023-07-29T04:41:46;8.82;;;3.38;;
45208;SDS011;30951;43.994;26.260;2023-07-29T04:44:11;9.70;;;3.55;;
45208;SDS011;30951;43.994;26.260;2023-07-29T04:46:37;9.73;;;3.22;;
45208;SDS011;30951;43.994;26.260;2023-07-29T04:49:03;3.75;;;3.30;;
45208;SDS011;30951;43.994;26.260;2023-07-29T04:51:29;7.32;;;2.90;;
45208;SDS011;30951;43.994;26.260;2023-07-29T04:53:55;7.43;;;4.10;;
45208;SDS011;30951;43.994;26.260;2023-07-29T04:56:20;5.50;;;2.70;;
45208;SDS011;30951;43.994;26.260;2023-07-29T04:58:46;3.67;;;3.20;;
45208;SDS011;30951;43.994;26.260;2023-07-29T05:01:11;5.60;;;3.90;;
45208;SDS011;30951;43.994;26.260;2023-07-29T05:03:36;4.63;;;3.40;;
45208;SDS011;30951;43.994;26.260;2023-07-29T05:06:04;6.60;;;3.70;;
45208;SDS011;30951;43.994;26.260;2023-07-29T05:08:30;9.35;;;4.35;;
45208;SDS011;30951;43.994;26.260;2023-07-29T05:10:55;8.13;;;3.38;;
45208;SDS011;30951;43.994;26.260;2023-07-29T05:13:21;4.15;;;2.75;;
45208;SDS011;30951;43.994;26.260;2023-07-29T05:15:47;4.78;;;3.05;;
45208;SDS011;30951;43.994;26.260;2023-07-29T05:18:13;4.47;;;2.90;;
45208;SDS011;30951;43.994;26.260;2023-07-29T05:20:39;4.18;;;2.95;;
45208;SDS011;30951;43.994;26.260;2023-07-29T05:23:04;8.98;;;2.35;;
45208;SDS011;30951;43.994;26.260;2023-07-29T05:25:30;6.60;;;2.42;;
45208;SDS011;30951;43.994;26.260;2023-07-29T05:27:55;7.80;;;2.50;;
45208;SDS011;30951;43.994;26.260;2023-07-29T05:30:22;11.00;;;2.70;;
45208;SDS011;30951;43.994;26.260;2023-07-29T05:32:47;2.63;;;2.42;;
45208;SDS011;30951;43.994;26.260;2023-07-29T05:35:13;3.85;;;2.25;;
45208;SDS011;30951;43.994;26.260;2023-07-29T05:37:39;3.13;;;2.28;;
45208;SDS011;30951;43.994;26.260;2023-07-29T05:40:05;3.42;;;2.08;;
45208;SDS011;30951;43.994;26.260;2023-07-29T05:42:32;5.70;;;2.28;;
45208;SDS011;30951;43.994;26.260;2023-07-29T05:44:57;2.80;;;2.13;;
45208;SDS011;30951;43.994;26.260;2023-07-29T05:47:23;2.72;;;2.33;;
45208;SDS011;30951;43.994;26.260;2023-07-29T05:49:48;4.88;;;2.10;;
45208;SDS011;30951;43.994;26.260;2023-07-29T05:52:14;2.78;;;2.15;;
45208;SDS011;30951;43.994;26.260;2023-07-29T05:54:40;9.23;;;2.28;;
45208;SDS011;30951;43.994;26.260;2023-07-29T05:57:08;2.85;;;2.42;;
45208;SDS011;30951;43.994;26.260;2023-07-29T05:59:34;4.40;;;2.40;;
45208;SDS011;30951;43.994;26.260;2023-07-29T06:02:00;2.78;;;2.20;;
45208;SDS011;30951;43.994;26.260;2023-07-29T06:04:25;3.53;;;2.50;;
45208;SDS011;30951;43.994;26.260;2023-07-29T06:06:51;3.35;;;2.20;;
45208;SDS011;30951;43.994;26.260;2023-07-29T06:09:16;2.90;;;2.00;;
45208;SDS011;30951;43.994;26.260;2023-07-29T06:11:42;3.03;;;2.28;;
45208;SDS011;30951;43.994;26.260;2023-07-29T06:14:07;8.73;;;2.17;;
45208;SDS011;30951;43.994;26.260;2023-07-29T06:16:33;2.45;;;2.08;;
45208;SDS011;30951;43.994;26.260;2023-07-29T06:18:58;2.55;;;1.90;;
45208;SDS011;30951;43.994;26.260;2023-07-29T06:21:24;5.70;;;2.25;;
45208;SDS011;30951;43.994;26.260;2023-07-29T06:23:49;6.55;;;2.17;;
45208;SDS011;30951;43.994;26.260;2023-07-29T06:26:15;2.15;;;1.90;;
45208;SDS011;30951;43.994;26.260;2023-07-29T06:28:40;3.72;;;1.90;;
45208;SDS011;30951;43.994;26.260;2023-07-29T06:31:05;2.50;;;2.10;;
45208;SDS011;30951;43.994;26.260;2023-07-29T06:33:31;4.82;;;2.95;;
45208;SDS011;30951;43.994;26.260;2023-07-29T06:35:57;3.75;;;1.83;;
45208;SDS011;30951;43.994;26.260;2023-07-29T06:38:22;3.42;;;1.73;;
45208;SDS011;30951;43.994;26.260;2023-07-29T06:40:48;2.80;;;1.60;;
45208;SDS011;30951;43.994;26.260;2023-07-29T06:43:14;1.98;;;1.70;;
45208;SDS011;30951;43.994;26.260;2023-07-29T06:45:39;2.47;;;1.20;;
45208;SDS011;30951;43.994;26.260;2023-07-29T06:48:05;2.17;;;1.50;;
45208;SDS011;30951;43.994;26.260;2023-07-29T06:50:30;2.00;;;1.70;;
45208;SDS011;30951;43.994;26.260;2023-07-29T06:52:56;6.63;;;1.75;;
45208;SDS011;30951;43.994;26.260;2023-07-29T06:55:23;4.63;;;1.60;;
45208;SDS011;30951;43.994;26.260;2023-07-29T06:57:49;6.30;;;1.70;;
45208;SDS011;30951;43.994;26.260;2023-07-29T07:00:14;5.95;;;2.30;;
45208;SDS011;30951;43.994;26.260;2023-07-29T07:02:40;1.58;;;1.48;;
45208;SDS011;30951;43.994;26.260;2023-07-29T07:05:06;1.80;;;1.70;;
45208;SDS011;30951;43.994;26.260;2023-07-29T07:07:32;2.20;;;1.48;;
45208;SDS011;30951;43.994;26.260;2023-07-29T07:09:57;4.63;;;1.80;;
45208;SDS011;30951;43.994;26.260;2023-07-29T07:12:23;3.15;;;2.30;;
45208;SDS011;30951;43.994;26.260;2023-07-29T07:14:49;6.53;;;2.30;;
45208;SDS011;30951;43.994;26.260;2023-07-29T07:17:14;3.00;;;1.98;;
45208;SDS011;30951;43.994;26.260;2023-07-29T07:19:40;3.78;;;1.98;;
45208;SDS011;30951;43.994;26.260;2023-07-29T07:22:05;6.18;;;1.92;;
45208;SDS011;30951;43.994;26.260;2023-07-29T07:24:31;2.35;;;2.00;;
45208;SDS011;30951;43.994;26.260;2023-07-29T07:26:56;4.70;;;1.85;;
45208;SDS011;30951;43.994;26.260;2023-07-29T07:29:22;6.40;;;2.05;;
45208;SDS011;30951;43.994;26.260;2023-07-29T07:31:51;2.15;;;1.60;;
45208;SDS011;30951;43.994;26.260;2023-07-29T07:34:18;1.58;;;1.30;;
45208;SDS011;30951;43.994;26.260;2023-07-29T07:36:44;2.15;;;1.33;;
45208;SDS011;30951;43.994;26.260;2023-07-29T07:39:10;2.55;;;1.40;;
45208;SDS011;30951;43.994;26.260;2023-07-29T07:41:35;6.75;;;1.80;;
45208;SDS011;30951;43.994;26.260;2023-07-29T07:44:00;5.00;;;1.23;;
45208;SDS011;30951;43.994;26.260;2023-07-29T07:46:26;2.38;;;1.52;;
45208;SDS011;30951;43.994;26.260;2023-07-29T07:48:51;2.50;;;1.52;;
45208;SDS011;30951;43.994;26.260;2023-07-29T07:51:17;1.50;;;1.27;;
45208;SDS011;30951;43.994;26.260;2023-07-29T07:53:42;3.55;;;1.45;;
45208;SDS011;30951;43.994;26.260;2023-07-29T07:56:08;1.65;;;1.30;;
45208;SDS011;30951;43.994;26.260;2023-07-29T07:58:33;1.20;;;1.10;;
45208;SDS011;30951;43.994;26.260;2023-07-29T08:01:03;2.08;;;1.35;;
45208;SDS011;30951;43.994;26.260;2023-07-29T08:03:29;3.40;;;1.83;;
45208;SDS011;30951;43.994;26.260;2023-07-29T08:05:55;1.55;;;1.08;;
45208;SDS011;30951;43.994;26.260;2023-07-29T08:08:20;3.05;;;1.30;;
45208;SDS011;30951;43.994;26.260;2023-07-29T08:10:46;1.30;;;1.10;;
45208;SDS011;30951;43.994;26.260;2023-07-29T08:13:11;1.30;;;1.20;;
45208;SDS011;30951;43.994;26.260;2023-07-29T08:15:36;3.53;;;1.40;;
45208;SDS011;30951;43.994;26.260;2023-07-29T08:18:02;1.83;;;1.20;;
45208;SDS011;30951;43.994;26.260;2023-07-29T08:20:27;4.65;;;1.50;;
45208;SDS011;30951;43.994;26.260;2023-07-29T08:22:53;6.43;;;1.05;;
45208;SDS011;30951;43.994;26.260;2023-07-29T08:25:18;3.47;;;1.05;;
45208;SDS011;30951;43.994;26.260;2023-07-29T08:27:44;1.20;;;1.02;;
45208;SDS011;30951;43.994;26.260;2023-07-29T08:30:09;1.60;;;1.23;;
45208;SDS011;30951;43.994;26.260;2023-07-29T08:32:35;0.98;;;0.88;;
45208;SDS011;30951;43.994;26.260;2023-07-29T08:35:00;1.23;;;0.90;;
45208;SDS011;30951;43.994;26.260;2023-07-29T08:37:26;1.38;;;1.13;;
45208;SDS011;30951;43.994;26.260;2023-07-29T08:39:52;4.85;;;1.10;;
45208;SDS011;30951;43.994;26.260;2023-07-29T08:42:19;1.75;;;0.80;;
45208;SDS011;30951;43.994;26.260;2023-07-29T08:44:45;1.08;;;0.95;;
45208;SDS011;30951;43.994;26.260;2023-07-29T08:47:11;1.23;;;0.90;;
45208;SDS011;30951;43.994;26.260;2023-07-29T08:49:38;1.50;;;0.98;;
45208;SDS011;30951;43.994;26.260;2023-07-29T08:52:04;1.23;;;1.08;;
45208;SDS011;30951;43.994;26.260;2023-07-29T08:54:30;1.65;;;1.02;;
45208;SDS011;30951;43.994;26.260;2023-07-29T08:56:56;1.33;;;1.00;;
45208;SDS011;30951;43.994;26.260;2023-07-29T08:59:22;1.17;;;1.08;;
45208;SDS011;30951;43.994;26.260;2023-07-29T09:01:48;1.33;;;1.00;;
45208;SDS011;30951;43.994;26.260;2023-07-29T09:04:14;1.25;;;1.05;;
45208;SDS011;30951;43.994;26.260;2023-07-29T09:06:40;3.45;;;1.40;;
45208;SDS011;30951;43.994;26.260;2023-07-29T09:09:08;1.45;;;1.00;;
45208;SDS011;30951;43.994;26.260;2023-07-29T09:11:34;1.48;;;1.13;;
45208;SDS011;30951;43.994;26.260;2023-07-29T09:14:00;1.98;;;1.00;;
45208;SDS011;30951;43.994;26.260;2023-07-29T09:16:25;1.27;;;1.17;;
45208;SDS011;30951;43.994;26.260;2023-07-29T09:18:51;3.90;;;1.23;;
45208;SDS011;30951;43.994;26.260;2023-07-29T09:21:17;3.00;;;1.00;;
45208;SDS011;30951;43.994;26.260;2023-07-29T09:23:49;1.95;;;1.00;;
45208;SDS011;30951;43.994;26.260;2023-07-29T09:26:20;2.17;;;1.20;;
45208;SDS011;30951;43.994;26.260;2023-07-29T09:28:51;1.33;;;1.00;;
45208;SDS011;30951;43.994;26.260;2023-07-29T09:31:23;2.53;;;1.17;;
45208;SDS011;30951;43.994;26.260;2023-07-29T09:33:50;1.10;;;1.00;;
45208;SDS011;30951;43.994;26.260;2023-07-29T09:36:22;8.40;;;1.40;;
45208;SDS011;30951;43.994;26.260;2023-07-29T09:38:47;1.67;;;0.68;;
45208;SDS011;30951;43.994;26.260;2023-07-29T09:41:13;3.85;;;1.38;;
45208;SDS011;30951;43.994;26.260;2023-07-29T09:43:40;4.38;;;1.20;;
45208;SDS011;30951;43.994;26.260;2023-07-29T09:46:06;2.17;;;1.38;;
45208;SDS011;30951;43.994;26.260;2023-07-29T09:48:32;1.35;;;1.02;;
45208;SDS011;30951;43.994;26.260;2023-07-29T09:50:58;1.73;;;1.30;;
45208;SDS011;30951;43.994;26.260;2023-07-29T09:53:24;1.80;;;1.20;;
45208;SDS011;30951;43.994;26.260;2023-07-29T09:55:50;1.77;;;1.38;;
45208;SDS011;30951;43.994;26.260;2023-07-29T09:58:19;2.92;;;1.20;;
45208;SDS011;30951;43.994;26.260;2023-07-29T10:00:51;1.45;;;1.33;;
45208;SDS011;30951;43.994;26.260;2023-07-29T10:03:17;3.72;;;1.30;;
45208;SDS011;30951;43.994;26.260;2023-07-29T10:05:44;5.15;;;1.60;;
45208;SDS011;30951;43.994;26.260;2023-07-29T10:08:10;1.23;;;1.00;;
45208;SDS011;30951;43.994;26.260;2023-07-29T10:10:36;6.22;;;1.20;;
45208;SDS011;30951;43.994;26.260;2023-07-29T10:13:01;2.42;;;1.75;;
45208;SDS011;30951;43.994;26.260;2023-07-29T10:15:27;3.60;;;1.38;;
45208;SDS011;30951;43.994;26.260;2023-07-29T10:17:54;4.22;;;1.42;;
45208;SDS011;30951;43.994;26.260;2023-07-29T10:20:20;1.92;;;1.45;;
45208;SDS011;30951;43.994;26.260;2023-07-29T10:22:47;1.77;;;1.20;;
45208;SDS011;30951;43.994;26.260;2023-07-29T10:25:15;1.23;;;1.10;;
45208;SDS011;30951;43.994;26.260;2023-07-29T10:30:37;2.17;;;1.02;;
45208;SDS011;30951;43.994;26.260;2023-07-29T10:33:04;3.00;;;1.23;;
45208;SDS011;30951;43.994;26.260;2023-07-29T10:35:34;3.50;;;1.13;;
45208;SDS011;30951;43.994;26.260;2023-07-29T10:38:00;2.00;;;1.10;;
45208;SDS011;30951;43.994;26.260;2023-07-29T10:40:28;1.30;;;1.20;;
45208;SDS011;30951;43.994;26.260;2023-07-29T10:43:09;1.63;;;0.90;;
45208;SDS011;30951;43.994;26.260;2023-07-29T10:45:39;6.32;;;1.30;;
45208;SDS011;30951;43.994;26.260;2023-07-29T10:48:07;1.10;;;0.95;;
45208;SDS011;30951;43.994;26.260;2023-07-29T10:50:35;1.27;;;1.17;;
45208;SDS011;30951;43.994;26.260;2023-07-29T10:53:01;3.08;;;1.10;;
45208;SDS011;30951;43.994;26.260;2023-07-29T10:55:27;9.93;;;1.20;;
45208;SDS011;30951;43.994;26.260;2023-07-29T10:58:15;0.82;;;0.80;;
45208;SDS011;30951;43.994;26.260;2023-07-29T11:00:44;1.10;;;1.00;;
45208;SDS011;30951;43.994;26.260;2023-07-29T11:03:11;1.15;;;1.00;;
45208;SDS011;30951;43.994;26.260;2023-07-29T11:05:43;2.15;;;0.90;;
45208;SDS011;30951;43.994;26.260;2023-07-29T11:08:17;1.33;;;0.93;;
45208;SDS011;30951;43.994;26.260;2023-07-29T11:10:44;1.23;;;1.05;;
45208;SDS011;30951;43.994;26.260;2023-07-29T11:13:22;2.50;;;1.20;;
45208;SDS011;30951;43.994;26.260;2023-07-29T11:15:48;6.13;;;1.23;;
45208;SDS011;30951;43.994;26.260;2023-07-29T11:18:15;1.35;;;0.88;;
45208;SDS011;30951;43.994;26.260;2023-07-29T11:20:41;1.20;;;1.00;;
45208;SDS011;30951;43.994;26.260;2023-07-29T11:23:06;1.67;;;1.00;;
45208;SDS011;30951;43.994;26.260;2023-07-29T11:25:32;1.27;;;1.10;;
45208;SDS011;30951;43.994;26.260;2023-07-29T11:28:01;0.93;;;0.70;;
45208;SDS011;30951;43.994;26.260;2023-07-29T11:30:26;1.40;;;1.08;;
45208;SDS011;30951;43.994;26.260;2023-07-29T11:32:53;4.32;;;1.02;;
45208;SDS011;30951;43.994;26.260;2023-07-29T11:35:19;1.77;;;1.00;;
45208;SDS011;30951;43.994;26.260;2023-07-29T11:37:48;1.13;;;1.00;;
45208;SDS011;30951;43.994;26.260;2023-07-29T11:42:47;1.55;;;1.05;;
45208;SDS011;30951;43.994;26.260;2023-07-29T11:45:15;1.10;;;1.00;;
45208;SDS011;30951;43.994;26.260;2023-07-29T11:47:41;1.10;;;1.00;;
45208;SDS011;30951;43.994;26.260;2023-07-29T11:50:08;1.73;;;1.00;;
45208;SDS011;30951;43.994;26.260;2023-07-29T11:52:35;2.78;;;1.00;;
45208;SDS011;30951;43.994;26.260;2023-07-29T11:55:02;1.42;;;1.10;;
45208;SDS011;30951;43.994;26.260;2023-07-29T11:57:29;2.60;;;0.88;;
45208;SDS011;30951;43.994;26.260;2023-07-29T11:59:55;0.80;;;0.70;;
45208;SDS011;30951;43.994;26.260;2023-07-29T12:02:20;1.17;;;1.08;;
45208;SDS011;30951;43.994;26.260;2023-07-29T12:04:47;4.25;;;0.93;;
45208;SDS011;30951;43.994;26.260;2023-07-29T12:07:14;1.27;;;1.13;;
45208;SDS011;30951;43.994;26.260;2023-07-29T12:09:40;1.83;;;1.23;;
45208;SDS011;30951;43.994;26.260;2023-07-29T12:12:07;0.88;;;0.80;;
45208;SDS011;30951;43.994;26.260;2023-07-29T12:14:33;1.10;;;1.00;;
45208;SDS011;30951;43.994;26.260;2023-07-29T12:17:00;1.25;;;1.00;;
45208;SDS011;30951;43.994;26.260;2023-07-29T12:19:32;3.33;;;1.00;;
45208;SDS011;30951;43.994;26.260;2023-07-29T12:21:59;2.78;;;1.10;;
45208;SDS011;30951;43.994;26.260;2023-07-29T12:24:25;3.00;;;0.98;;
45208;SDS011;30951;43.994;26.260;2023-07-29T12:26:51;5.43;;;2.00;;
45208;SDS011;30951;43.994;26.260;2023-07-29T12:29:17;1.23;;;1.05;;
45208;SDS011;30951;43.994;26.260;2023-07-29T12:31:45;0.88;;;0.82;;
45208;SDS011;30951;43.994;26.260;2023-07-29T12:34:17;3.00;;;1.20;;
45208;SDS011;30951;43.994;26.260;2023-07-29T12:36:44;1.00;;;0.90;;
45208;SDS011;30951;43.994;26.260;2023-07-29T12:39:21;1.20;;;0.90;;
45208;SDS011;30951;43.994;26.260;2023-07-29T12:41:49;1.33;;;1.05;;
45208;SDS011;30951;43.994;26.260;2023-07-29T12:44:15;1.50;;;0.82;;
45208;SDS011;30951;43.994;26.260;2023-07-29T12:46:40;1.90;;;1.10;;
45208;SDS011;30951;43.994;26.260;2023-07-29T12:49:06;1.75;;;1.13;;
45208;SDS011;30951;43.994;26.260;2023-07-29T12:51:32;1.20;;;0.85;;
45208;SDS011;30951;43.994;26.260;2023-07-29T12:53:57;0.93;;;0.90;;
45208;SDS011;30951;43.994;26.260;2023-07-29T12:56:23;1.50;;;1.10;;
45208;SDS011;30951;43.994;26.260;2023-07-29T12:58:48;1.02;;;1.00;;
45208;SDS011;30951;43.994;26.260;2023-07-29T13:01:14;1.42;;;1.10;;
45208;SDS011;30951;43.994;26.260;2023-07-29T13:03:43;2.47;;;1.30;;
45208;SDS011;30951;43.994;26.260;2023-07-29T13:06:09;2.13;;;1.20;;
45208;SDS011;30951;43.994;26.260;2023-07-29T13:08:34;1.23;;;1.13;;
45208;SDS011;30951;43.994;26.260;2023-07-29T13:11:00;1.38;;;1.00;;
45208;SDS011;30951;43.994;26.260;2023-07-29T13:13:25;1.70;;;1.20;;
45208;SDS011;30951;43.994;26.260;2023-07-29T13:15:51;1.08;;;1.00;;
45208;SDS011;30951;43.994;26.260;2023-07-29T13:18:17;1.33;;;1.10;;
45208;SDS011;30951;43.994;26.260;2023-07-29T13:20:43;2.92;;;0.73;;
45208;SDS011;30951;43.994;26.260;2023-07-29T13:23:08;1.25;;;1.00;;
45208;SDS011;30951;43.994;26.260;2023-07-29T13:25:34;1.13;;;0.90;;
45208;SDS011;30951;43.994;26.260;2023-07-29T13:27:59;3.85;;;1.45;;
45208;SDS011;30951;43.994;26.260;2023-07-29T13:30:24;1.77;;;1.20;;
45208;SDS011;30951;43.994;26.260;2023-07-29T13:32:50;1.67;;;1.25;;
45208;SDS011;30951;43.994;26.260;2023-07-29T13:35:15;1.48;;;0.82;;
45208;SDS011;30951;43.994;26.260;2023-07-29T13:37:41;2.88;;;1.15;;
45208;SDS011;30951;43.994;26.260;2023-07-29T13:40:06;1.23;;;1.05;;
45208;SDS011;30951;43.994;26.260;2023-07-29T13:42:32;4.80;;;0.95;;
45208;SDS011;30951;43.994;26.260;2023-07-29T13:44:58;2.47;;;1.45;;
45208;SDS011;30951;43.994;26.260;2023-07-29T13:47:23;3.85;;;1.52;;
45208;SDS011;30951;43.994;26.260;2023-07-29T13:49:49;1.23;;;1.00;;
45208;SDS011;30951;43.994;26.260;2023-07-29T13:52:14;3.22;;;1.00;;
45208;SDS011;30951;43.994;26.260;2023-07-29T13:54:40;1.60;;;1.05;;
45208;SDS011;30951;43.994;26.260;2023-07-29T13:57:05;0.88;;;0.88;;
45208;SDS011;30951;43.994;26.260;2023-07-29T13:59:32;3.10;;;1.08;;
45208;SDS011;30951;43.994;26.260;2023-07-29T14:01:57;1.00;;;0.90;;
45208;SDS011;30951;43.994;26.260;2023-07-29T14:04:23;4.53;;;1.20;;
45208;SDS011;30951;43.994;26.260;2023-07-29T14:06:48;1.42;;;1.20;;
45208;SDS011;30951;43.994;26.260;2023-07-29T14:09:14;1.38;;;1.27;;
45208;SDS011;30951;43.994;26.260;2023-07-29T14:11:39;2.63;;;1.50;;
45208;SDS011;30951;43.994;26.260;2023-07-29T14:14:05;3.20;;;1.42;;
45208;SDS011;30951;43.994;26.260;2023-07-29T14:16:30;4.25;;;1.55;;
45208;SDS011;30951;43.994;26.260;2023-07-29T14:18:56;2.05;;;1.52;;
45208;SDS011;30951;43.994;26.260;2023-07-29T14:21:21;4.63;;;1.38;;
45208;SDS011;30951;43.994;26.260;2023-07-29T14:23:47;0.88;;;0.88;;
45208;SDS011;30951;43.994;26.260;2023-07-29T14:26:12;1.50;;;1.40;;
45208;SDS011;30951;43.994;26.260;2023-07-29T14:28:37;1.10;;;1.00;;
45208;SDS011;30951;43.994;26.260;2023-07-29T14:31:03;1.67;;;1.00;;
45208;SDS011;30951;43.994;26.260;2023-07-29T14:33:28;5.00;;;1.75;;
45208;SDS011;30951;43.994;26.260;2023-07-29T14:35:54;7.93;;;1.45;;